Time;durP1;ratioP1;P1;durP2;ratioP2;P2;SDS_P1;SDS_P2;PMS_P1;PMS_P2;Temp;Humidity;BMP_temperature;BMP_pressure;BME280_temperature;BME280_humidity;BME280_pressure;Samples;Min_cycle;Max_cycle;Signal;HPM_P1;HPM_P2
2021/03/23 00:00:29;;;;;;;5.22;2.50;;;6.00;87.50;;;;;;5072762;28;20476;-74
2021/03/23 00:03:13;;;;;;;4.25;2.28;;;6.00;87.60;;;;;;5072940;28;20064;-74
2021/03/23 00:05:40;;;;;;;5.53;2.65;;;6.00;87.30;;;;;;5072519;28;20041;-74
2021/03/23 00:08:34;;;;;;;7.32;2.17;;;6.00;87.40;;;;;;5073284;28;20037;-74
2021/03/23 00:11:04;;;;;;;;;;;6.00;87.50;;;;;;5073536;28;20043;-74
2021/03/23 00:13:30;;;;;;;4.22;2.08;;;6.00;88.00;;;;;;5073025;28;19917;-74
2021/03/23 00:15:56;;;;;;;5.70;2.55;;;6.00;87.80;;;;;;5072446;28;20037;-74
2021/03/23 00:18:21;;;;;;;5.05;2.83;;;6.00;87.60;;;;;;5073441;28;20037;-74
2021/03/23 00:20:47;;;;;;;9.05;2.25;;;6.00;87.70;;;;;;5073418;28;20048;-74
2021/03/23 00:23:14;;;;;;;5.50;2.45;;;6.00;87.70;;;;;;5074151;28;20040;-74
2021/03/23 00:25:40;;;;;;;5.68;2.20;;;6.00;88.00;;;;;;5076247;28;20043;-74
2021/03/23 00:28:07;;;;;;;8.00;2.47;;;6.00;87.70;;;;;;5077849;28;20033;-74
2021/03/23 00:30:33;;;;;;;5.78;2.35;;;6.00;88.00;;;;;;5078077;28;20048;-74
2021/03/23 00:32:59;;;;;;;6.38;2.58;;;6.00;87.80;;;;;;5076465;28;20036;-74
2021/03/23 00:35:25;;;;;;;4.95;1.90;;;6.10;88.20;;;;;;5075960;28;20548;-74
2021/03/23 00:37:54;;;;;;;3.30;1.92;;;6.00;87.80;;;;;;5058734;28;20043;-74
2021/03/23 00:40:25;;;;;;;4.53;2.20;;;6.00;87.70;;;;;;5076048;28;20607;-74
2021/03/23 00:42:50;;;;;;;4.03;2.13;;;6.00;87.70;;;;;;5076255;28;20390;-74
2021/03/23 00:45:18;;;;;;;7.60;2.00;;;6.10;88.20;;;;;;5075894;28;20036;-74
2021/03/23 00:47:45;;;;;;;8.95;2.97;;;6.00;87.90;;;;;;5076534;28;20408;-74
2021/03/23 00:50:11;;;;;;;4.70;1.92;;;6.00;88.60;;;;;;5076158;28;20032;-74
2021/03/23 00:52:36;;;;;;;3.65;2.00;;;6.00;88.10;;;;;;5076233;28;20542;-74
2021/03/23 00:55:04;;;;;;;3.42;2.13;;;6.10;88.10;;;;;;5057941;28;20043;-74
2021/03/23 00:57:29;;;;;;;4.47;2.03;;;6.00;87.80;;;;;;5076039;28;20040;-74
2021/03/23 00:59:55;;;;;;;4.22;1.90;;;6.00;88.00;;;;;;5075734;28;20036;-74
2021/03/23 01:02:21;;;;;;;3.95;2.13;;;6.00;88.10;;;;;;5075810;28;20067;-74
2021/03/23 01:04:47;;;;;;;4.38;2.05;;;6.00;88.20;;;;;;5075265;28;20115;-74
2021/03/23 01:07:12;;;;;;;4.75;2.15;;;6.00;88.40;;;;;;5075862;28;20481;-74
2021/03/23 01:09:38;;;;;;;6.35;2.20;;;6.00;88.50;;;;;;5075725;28;20148;-74
2021/03/23 01:12:06;;;;;;;7.60;2.22;;;6.00;88.40;;;;;;5075562;28;20396;-74
2021/03/23 01:14:31;;;;;;;4.07;1.90;;;6.10;88.50;;;;;;5075690;28;20111;-74
2021/03/23 01:16:57;;;;;;;4.32;2.00;;;6.10;88.50;;;;;;5075453;28;20084;-74
2021/03/23 01:19:23;;;;;;;4.90;1.50;;;6.00;88.70;;;;;;5075549;28;20097;-74
2021/03/23 01:21:48;;;;;;;7.03;2.17;;;6.10;89.00;;;;;;5075602;28;20037;-74
2021/03/23 01:24:14;;;;;;;7.47;2.00;;;6.00;88.80;;;;;;5075805;28;20041;-74
2021/03/23 01:26:40;;;;;;;4.43;2.03;;;6.00;89.00;;;;;;5075069;28;20404;-74
2021/03/23 01:29:06;;;;;;;4.03;2.20;;;6.00;89.00;;;;;;5075194;28;20032;-74
2021/03/23 01:31:31;;;;;;;3.42;2.30;;;6.00;89.30;;;;;;5075311;28;20477;-74
2021/03/23 01:33:57;;;;;;;4.78;2.38;;;6.00;89.10;;;;;;5075102;28;20098;-74
2021/03/23 01:36:22;;;;;;;5.35;2.40;;;6.00;89.10;;;;;;5074265;28;20476;-74
2021/03/23 01:38:48;;;;;;;4.78;2.85;;;6.00;89.20;;;;;;5075335;28;20119;-74
2021/03/23 01:41:14;;;;;;;7.22;2.88;;;6.00;89.20;;;;;;5074862;28;20119;-74
2021/03/23 01:43:40;;;;;;;6.60;2.97;;;6.00;89.10;;;;;;5057001;28;20123;-74
2021/03/23 01:46:45;;;;;;;5.57;3.08;;;6.00;89.20;;;;;;5074547;28;20097;-74
2021/03/23 01:49:32;;;;;;;5.97;2.92;;;6.00;89.50;;;;;;5072015;28;20048;-74
2021/03/23 01:52:02;;;;;;;6.53;2.63;;;6.00;89.70;;;;;;5075350;28;20040;-74
2021/03/23 01:54:39;;;;;;;6.60;2.60;;;6.00;89.30;;;;;;5074749;28;20040;-74
2021/03/23 01:57:08;;;;;;;6.97;3.25;;;6.10;89.20;;;;;;5074647;28;20094;-74
2021/03/23 01:59:38;;;;;;;4.50;2.83;;;6.10;89.10;;;;;;5075046;28;20044;-74
2021/03/23 02:02:04;;;;;;;4.40;1.80;;;6.10;89.20;;;;;;5074656;28;20036;-74
2021/03/23 02:04:30;;;;;;;5.13;2.67;;;6.10;89.20;;;;;;5074226;28;20110;-74
2021/03/23 02:06:55;;;;;;;3.83;2.40;;;6.10;89.00;;;;;;5074309;28;20060;-74
2021/03/23 02:09:33;;;;;;;7.00;3.05;;;6.20;89.00;;;;;;5074328;28;20040;-74
2021/03/23 02:12:12;;;;;;;5.85;2.72;;;6.30;88.90;;;;;;5074529;28;20040;-74
2021/03/23 02:14:41;;;;;;;5.28;3.22;;;6.20;89.00;;;;;;5074018;28;20432;-74
2021/03/23 02:17:33;;;;;;;6.22;3.30;;;6.20;89.10;;;;;;5056456;28;20101;-74
2021/03/23 02:20:05;;;;;;;8.10;3.90;;;6.10;89.40;;;;;;5074412;28;20048;-74
2021/03/23 02:22:34;;;;;;;12.63;4.90;;;6.10;89.50;;;;;;5074670;28;20056;-74
2021/03/23 02:25:02;;;;;;;12.95;4.63;;;6.20;89.50;;;;;;5073725;28;20044;-74
2021/03/23 02:27:29;;;;;;;7.03;4.15;;;6.10;89.50;;;;;;5073862;28;20139;-74
2021/03/23 02:29:58;;;;;;;9.65;4.07;;;6.10;89.50;;;;;;5074112;28;20170;-74
2021/03/23 02:32:24;;;;;;;8.40;4.35;;;6.10;89.50;;;;;;5073908;28;20086;-74
2021/03/23 02:34:50;;;;;;;10.15;4.55;;;6.10;89.40;;;;;;5073552;28;20079;-74
2021/03/23 02:37:17;;;;;;;11.25;4.90;;;6.10;89.50;;;;;;5055932;28;20071;-74
2021/03/23 02:39:43;;;;;;;9.07;5.22;;;6.10;89.40;;;;;;5073706;28;20085;-74
2021/03/23 02:42:10;;;;;;;8.00;4.68;;;6.00;89.20;;;;;;5073607;28;20115;-74
2021/03/23 02:44:44;;;;;;;10.85;5.45;;;6.00;89.30;;;;;;5073465;28;20036;-74
2021/03/23 02:47:11;;;;;;;7.93;5.55;;;6.00;89.50;;;;;;5073158;28;20041;-74
2021/03/23 02:49:37;;;;;;;12.60;5.78;;;5.90;89.60;;;;;;5073663;28;20086;-74
2021/03/23 02:52:04;;;;;;;14.55;7.32;;;5.90;89.60;;;;;;5074303;28;20089;-74
2021/03/23 02:54:30;;;;;;;12.88;6.20;;;5.80;89.60;;;;;;5073356;28;20054;-74
2021/03/23 02:56:56;;;;;;;14.75;6.50;;;5.80;89.60;;;;;;5074657;28;20079;-74
2021/03/23 02:59:22;;;;;;;16.15;6.82;;;5.70;89.80;;;;;;5077066;28;20036;-74
2021/03/23 03:01:48;;;;;;;12.18;6.60;;;5.60;89.80;;;;;;5076452;28;20033;-74
2021/03/23 03:04:14;;;;;;;13.25;6.53;;;5.60;90.00;;;;;;5074151;28;20511;-74
2021/03/23 03:06:40;;;;;;;13.75;7.50;;;5.50;90.40;;;;;;5074027;28;20040;-74
2021/03/23 03:09:06;;;;;;;16.30;8.23;;;5.50;90.20;;;;;;5077296;28;20040;-74
2021/03/23 03:11:32;;;;;;;13.82;7.88;;;5.40;90.20;;;;;;5076041;28;20044;-74
2021/03/23 03:13:59;;;;;;;14.98;7.43;;;5.40;90.30;;;;;;5073389;28;20039;-74
2021/03/23 03:16:24;;;;;;;15.68;7.78;;;5.30;90.30;;;;;;5073072;28;20036;-74
2021/03/23 03:18:50;;;;;;;12.93;7.75;;;5.30;90.80;;;;;;5073062;28;20115;-74
2021/03/23 03:21:16;;;;;;;16.58;7.82;;;5.30;90.60;;;;;;5073107;28;20032;-74
2021/03/23 03:23:42;;;;;;;13.02;7.03;;;5.30;90.80;;;;;;5073213;28;20503;-74
2021/03/23 03:26:08;;;;;;;17.10;8.73;;;5.20;90.90;;;;;;5072932;28;20532;-74
2021/03/23 03:28:35;;;;;;;13.82;8.27;;;5.30;90.80;;;;;;5073598;28;20071;-74
2021/03/23 03:31:02;;;;;;;14.73;8.25;;;5.30;90.90;;;;;;5073093;28;20037;-74
2021/03/23 03:33:28;;;;;;;19.05;8.95;;;5.30;91.00;;;;;;5073628;28;20032;-74
2021/03/23 03:35:53;;;;;;;18.40;9.80;;;5.30;91.20;;;;;;5072930;28;20028;-74
2021/03/23 03:38:21;;;;;;;15.98;9.32;;;5.30;91.20;;;;;;5073253;28;20059;-74
2021/03/23 03:40:50;;;;;;;16.38;9.05;;;5.40;91.20;;;;;;5055249;28;20094;-74
2021/03/23 03:43:18;;;;;;;13.73;8.27;;;5.50;91.50;;;;;;5073146;28;20044;-74
2021/03/23 03:45:44;;;;;;;15.63;8.27;;;5.40;91.10;;;;;;5054757;28;20085;-74
2021/03/23 03:48:10;;;;;;;18.58;9.27;;;5.50;91.20;;;;;;5073030;28;20115;-74
2021/03/23 03:50:37;;;;;;;16.35;9.82;;;5.50;91.30;;;;;;5073012;28;20040;-74
2021/03/23 03:53:03;;;;;;;18.15;8.75;;;5.50;91.40;;;;;;5072895;28;20036;-74
2021/03/23 03:55:33;;;;;;;17.88;9.80;;;5.60;91.10;;;;;;5072583;28;20036;-74
2021/03/23 03:57:59;;;;;;;14.73;9.43;;;5.60;91.10;;;;;;5072877;28;20041;-74
2021/03/23 04:00:28;;;;;;;20.17;10.23;;;5.60;90.90;;;;;;5076773;28;20051;-74
2021/03/23 04:02:54;;;;;;;21.40;9.88;;;5.70;90.80;;;;;;5077409;28;20071;-74
2021/03/23 04:05:27;;;;;;;21.98;9.48;;;5.70;90.80;;;;;;5076704;28;20068;-74
2021/03/23 04:07:53;;;;;;;22.13;9.98;;;5.70;90.90;;;;;;5077240;28;20059;-74
2021/03/23 04:10:19;;;;;;;22.15;11.88;;;5.70;90.90;;;;;;5076681;28;20037;-74
2021/03/23 04:12:46;;;;;;;21.38;10.90;;;5.70;90.80;;;;;;5076648;28;20061;-74
2021/03/23 04:15:19;;;;;;;22.77;11.00;;;5.70;90.80;;;;;;5076402;28;20091;-74
2021/03/23 04:17:45;;;;;;;;;;;5.70;90.70;;;;;;5076826;28;20093;-74
2021/03/23 04:20:12;;;;;;;28.45;11.88;;;5.70;90.90;;;;;;5076465;28;20026;-74
2021/03/23 04:22:39;;;;;;;20.50;11.23;;;5.60;90.90;;;;;;5076638;28;20481;-74
2021/03/23 04:25:07;;;;;;;24.75;11.40;;;5.70;91.00;;;;;;5076353;28;20048;-74
2021/03/23 04:27:33;;;;;;;31.17;13.63;;;5.70;91.00;;;;;;5076714;28;20490;-74
2021/03/23 04:29:58;;;;;;;28.23;12.70;;;5.70;90.90;;;;;;5076644;28;20117;-74
2021/03/23 04:32:24;;;;;;;28.02;12.38;;;5.70;90.90;;;;;;5076706;28;20040;-74
2021/03/23 04:34:50;;;;;;;26.95;13.80;;;5.70;90.90;;;;;;5075995;28;20044;-74
2021/03/23 04:37:15;;;;;;;28.75;14.50;;;5.70;90.90;;;;;;5058543;28;20414;-74
2021/03/23 04:39:41;;;;;;;35.92;15.27;;;5.70;90.80;;;;;;5076098;28;20043;-74
2021/03/23 04:42:07;;;;;;;31.40;14.80;;;5.70;90.90;;;;;;5076440;28;20045;-74
2021/03/23 04:44:33;;;;;;;26.00;13.57;;;5.70;90.80;;;;;;5076347;28;20063;-74
2021/03/23 04:46:59;;;;;;;25.85;12.57;;;5.70;90.80;;;;;;5075979;28;20500;-74
2021/03/23 04:49:24;;;;;;;28.40;15.32;;;5.70;91.20;;;;;;5076040;28;20033;-74
2021/03/23 04:51:50;;;;;;;24.05;13.35;;;5.70;90.90;;;;;;5058366;28;20435;-74
2021/03/23 04:54:16;;;;;;;22.13;13.52;;;5.70;90.90;;;;;;5076179;28;20041;-75
2021/03/23 04:56:43;;;;;;;30.88;14.48;;;5.70;90.90;;;;;;5075623;28;20397;-74
2021/03/23 04:59:09;;;;;;;25.17;12.65;;;5.70;90.90;;;;;;5076077;28;20067;-74
2021/03/23 05:01:37;;;;;;;25.88;14.23;;;5.70;90.90;;;;;;5076082;28;20068;-74
2021/03/23 05:04:07;;;;;;;28.60;14.70;;;5.70;91.00;;;;;;5075657;28;20546;-74
2021/03/23 05:06:33;;;;;;;28.73;13.90;;;5.80;90.90;;;;;;5075657;28;20085;-74
2021/03/23 05:08:59;;;;;;;27.42;14.25;;;5.80;90.90;;;;;;5075532;28;20032;-74
2021/03/23 05:11:28;;;;;;;29.95;13.93;;;5.80;90.90;;;;;;5074559;28;20036;-74
2021/03/23 05:13:54;;;;;;;30.40;14.77;;;5.80;90.90;;;;;;5075712;28;20032;-74
2021/03/23 05:16:21;;;;;;;28.67;14.90;;;5.80;91.20;;;;;;5075290;28;20101;-74
2021/03/23 05:18:47;;;;;;;27.92;14.40;;;5.80;90.80;;;;;;5075341;28;20078;-74
2021/03/23 05:21:13;;;;;;;27.27;13.60;;;5.80;90.60;;;;;;5075574;28;20032;-74
2021/03/23 05:23:38;;;;;;;32.38;14.02;;;5.90;90.50;;;;;;5075442;28;20052;-74
2021/03/23 05:26:06;;;;;;;26.83;14.25;;;5.90;90.40;;;;;;5074972;28;20098;-74
2021/03/23 05:28:32;;;;;;;29.35;15.95;;;5.80;90.30;;;;;;5075117;28;20037;-74
2021/03/23 05:30:58;;;;;;;25.98;13.88;;;5.80;90.40;;;;;;5075256;28;20090;-74
2021/03/23 05:33:26;;;;;;;28.58;15.70;;;5.80;90.50;;;;;;5075624;28;20090;-74
2021/03/23 05:35:54;;;;;;;23.67;13.27;;;5.80;90.60;;;;;;5074996;28;20041;-74
2021/03/23 05:38:20;;;;;;;28.90;15.13;;;5.80;90.60;;;;;;5074977;28;20500;-74
2021/03/23 05:40:55;;;;;;;27.90;14.98;;;5.80;90.50;;;;;;5075179;28;20068;-74
2021/03/23 05:43:41;;;;;;;26.35;13.88;;;5.80;90.70;;;;;;5075612;28;20048;-74
2021/03/23 05:46:27;;;;;;;24.48;13.80;;;5.80;90.60;;;;;;5056884;28;20040;-74
2021/03/23 05:49:11;;;;;;;26.35;14.40;;;5.80;90.70;;;;;;5075384;28;20430;-74
2021/03/23 05:51:58;;;;;;;23.13;13.20;;;5.70;90.60;;;;;;5075201;28;20044;-74
2021/03/23 05:54:38;;;;;;;24.95;14.93;;;5.70;90.70;;;;;;5074744;28;20040;-74
2021/03/23 05:57:28;;;;;;;26.38;14.50;;;5.70;90.70;;;;;;5074651;28;20094;-74
2021/03/23 05:59:58;;;;;;;27.63;14.57;;;5.70;90.80;;;;;;5074554;28;20041;-74
2021/03/23 06:02:48;;;;;;;25.48;14.88;;;5.70;90.70;;;;;;5074711;28;20040;-74
2021/03/23 06:05:38;;;;;;;25.02;15.00;;;5.70;90.70;;;;;;5074389;28;20051;-74
2021/03/23 06:08:15;;;;;;;24.33;15.70;;;5.70;90.70;;;;;;5074720;28;20598;-74
2021/03/23 06:10:41;;;;;;;30.05;15.13;;;5.70;90.70;;;;;;5056535;28;20117;-74
2021/03/23 06:13:42;;;;;;;30.45;15.27;;;5.80;90.70;;;;;;5074270;28;20535;-74
2021/03/23 06:16:11;;;;;;;29.83;15.27;;;5.80;90.70;;;;;;5056226;28;20060;-74
2021/03/23 06:18:43;;;;;;;28.73;15.38;;;5.80;90.60;;;;;;5074151;28;20553;-74
2021/03/23 06:21:15;;;;;;;31.27;16.13;;;5.80;90.60;;;;;;5056134;28;20495;-74
2021/03/23 06:23:49;;;;;;;26.73;15.98;;;5.90;90.60;;;;;;5074256;28;20472;-74
2021/03/23 06:26:22;;;;;;;24.67;14.70;;;5.90;90.50;;;;;;5073764;28;20067;-74
2021/03/23 06:29:03;;;;;;;28.50;16.60;;;5.90;90.50;;;;;;5074292;28;20036;-74
2021/03/23 06:31:39;;;;;;;27.48;15.68;;;5.90;90.80;;;;;;5073927;28;20287;-74
2021/03/23 06:34:14;;;;;;;24.38;15.15;;;6.00;90.50;;;;;;5074198;28;20112;-74
2021/03/23 06:36:40;;;;;;;27.00;15.23;;;6.00;90.30;;;;;;5073598;28;20041;-74
2021/03/23 06:39:06;;;;;;;25.13;15.88;;;6.00;90.20;;;;;;5074327;28;20037;-74
2021/03/23 06:41:35;;;;;;;22.38;14.45;;;6.00;90.20;;;;;;5055805;28;20048;-74
2021/03/23 06:44:13;;;;;;;25.48;15.75;;;6.00;90.10;;;;;;5073924;28;20473;-73
2021/03/23 06:46:44;;;;;;;27.45;15.73;;;6.00;90.00;;;;;;5073434;28;20142;-74
2021/03/23 06:49:13;;;;;;;28.13;15.68;;;6.10;90.10;;;;;;5073733;28;20079;-74
2021/03/23 06:51:57;;;;;;;25.45;14.65;;;6.00;90.00;;;;;;5073938;28;20044;-74
2021/03/23 06:54:24;;;;;;;;;;;6.10;89.60;;;;;;5056087;28;20373;-75
2021/03/23 06:57:13;;;;;;;27.45;15.15;;;6.00;89.90;;;;;;5073699;28;19924;-74
2021/03/23 06:59:59;;;;;;;28.27;15.52;;;6.00;90.00;;;;;;5073605;28;20032;-74
2021/03/23 07:02:43;;;;;;;25.73;15.63;;;6.10;90.10;;;;;;5073534;28;20040;-74
2021/03/23 07:05:27;;;;;;;28.77;15.25;;;6.10;90.20;;;;;;5055411;28;20041;-74
2021/03/23 07:08:03;;;;;;;27.85;16.58;;;6.20;90.20;;;;;;5073373;28;20036;-74
2021/03/23 07:10:32;;;;;;;29.77;17.10;;;6.20;90.20;;;;;;5055580;28;20396;-74
2021/03/23 07:12:59;;;;;;;28.42;17.00;;;6.20;90.20;;;;;;5073375;28;20041;-74
2021/03/23 07:15:30;;;;;;;25.35;15.52;;;6.30;90.20;;;;;;5073027;28;20071;-74
2021/03/23 07:18:18;;;;;;;28.70;16.23;;;6.30;89.90;;;;;;5073146;28;20040;-74
2021/03/23 07:20:49;;;;;;;27.52;15.80;;;6.30;89.50;;;;;;5073443;28;20036;-75
2021/03/23 07:23:30;;;;;;;30.83;15.80;;;6.30;89.60;;;;;;5073246;28;20051;-74
2021/03/23 07:26:12;;;;;;;28.70;16.75;;;6.30;89.50;;;;;;5072995;28;20064;-74
2021/03/23 07:28:40;;;;;;;29.40;16.45;;;6.40;89.90;;;;;;5073255;28;20041;-74
2021/03/23 07:31:10;;;;;;;31.27;15.63;;;6.30;89.40;;;;;;5055752;28;20419;-74
2021/03/23 07:33:46;;;;;;;30.70;17.92;;;6.40;89.60;;;;;;5072924;28;20036;-74
2021/03/23 07:36:17;;;;;;;29.95;16.77;;;6.40;89.50;;;;;;5072706;28;20064;-72
2021/03/23 07:38:48;;;;;;;24.40;16.30;;;6.50;89.70;;;;;;5073064;28;20094;-72
2021/03/23 07:41:22;;;;;;;31.30;18.52;;;6.50;90.00;;;;;;5072882;28;20036;-72
2021/03/23 07:44:02;;;;;;;29.77;17.55;;;6.60;89.90;;;;;;5055096;28;20063;-72
2021/03/23 07:46:41;;;;;;;29.70;17.13;;;6.60;89.70;;;;;;5072640;28;20400;-72
2021/03/23 07:49:12;;;;;;;24.60;18.05;;;6.70;90.00;;;;;;5073325;28;20450;-72
2021/03/23 07:51:43;;;;;;;29.38;17.88;;;6.70;89.60;;;;;;5073237;28;20063;-72
2021/03/23 07:54:45;;;;;;;27.25;17.42;;;6.80;89.40;;;;;;5055365;28;20033;-72
2021/03/23 07:57:20;;;;;;;25.77;17.60;;;6.80;88.90;;;;;;4991793;28;20046;-72
2021/03/23 08:00:10;;;;;;;27.08;16.73;;;6.80;89.30;;;;;;5061987;28;20127;-72
2021/03/23 08:02:55;;;;;;;32.65;19.88;;;6.80;88.70;;;;;;5054898;28;20041;-72
2021/03/23 08:05:42;;;;;;;28.63;19.35;;;6.90;88.60;;;;;;5052337;28;20503;-72
2021/03/23 08:08:17;;;;;;;32.50;20.20;;;6.90;88.50;;;;;;5052939;28;20044;-72
2021/03/23 08:11:02;;;;;;;31.10;18.55;;;6.90;88.40;;;;;;5052865;28;20041;-72
2021/03/23 08:13:53;;;;;;;36.50;20.33;;;7.00;88.30;;;;;;5052909;28;20041;-72
2021/03/23 08:16:56;;;;;;;33.20;20.23;;;7.10;88.50;;;;;;5052465;28;20386;-72
2021/03/23 08:19:41;;;;;;;39.47;21.60;;;7.10;88.60;;;;;;5052524;28;20045;-72
2021/03/23 08:22:40;;;;;;;36.50;18.90;;;7.20;88.20;;;;;;5053216;28;20056;-72
2021/03/23 08:25:43;;;;;;;29.08;19.00;;;7.30;87.60;;;;;;5053119;28;20076;-72
2021/03/23 08:28:22;;;;;;;33.60;21.10;;;7.30;87.50;;;;;;5052690;28;20036;-72
2021/03/23 08:31:02;;;;;;;33.75;21.88;;;7.30;87.40;;;;;;5052816;28;20044;-72
2021/03/23 08:33:50;;;;;;;42.20;22.08;;;7.30;87.20;;;;;;5034970;28;20049;-72
2021/03/23 08:36:47;;;;;;;34.80;22.88;;;7.40;87.20;;;;;;5052716;28;20033;-72
2021/03/23 08:39:15;;;;;;;42.50;23.05;;;7.50;87.10;;;;;;5052659;28;20373;-72
2021/03/23 08:42:00;;;;;;;39.78;22.83;;;7.60;87.00;;;;;;5052513;28;20037;-72
2021/03/23 08:44:36;;;;;;;37.85;24.00;;;7.60;86.10;;;;;;5052209;28;20040;-73
2021/03/23 08:47:28;;;;;;;48.63;25.83;;;7.80;87.00;;;;;;5055469;28;20041;-73
2021/03/23 08:49:56;;;;;;;39.42;23.20;;;7.80;86.00;;;;;;5055994;28;20036;-72
2021/03/23 08:52:31;;;;;;;43.92;23.65;;;8.00;86.40;;;;;;5037920;28;20091;-73
2021/03/23 08:54:58;;;;;;;35.75;22.27;;;8.00;84.60;;;;;;5055904;28;20063;-73
2021/03/23 08:57:44;;;;;;;38.63;22.85;;;8.00;85.00;;;;;;5055688;28;20500;-73
2021/03/23 09:00:36;;;;;;;33.47;22.15;;;8.10;84.60;;;;;;5055888;28;20530;-73
2021/03/23 09:03:11;;;;;;;32.20;20.63;;;8.10;83.90;;;;;;5056088;28;20512;-73
2021/03/23 09:05:52;;;;;;;35.33;21.30;;;8.10;82.30;;;;;;5055506;28;20044;-72
2021/03/23 09:08:20;;;;;;;38.08;22.83;;;8.20;82.50;;;;;;5055736;28;20041;-73
2021/03/23 09:11:06;;;;;;;33.90;21.25;;;8.30;82.60;;;;;;5055750;28;20045;-73
2021/03/23 09:13:35;;;;;;;32.63;21.48;;;8.50;82.10;;;;;;5055740;28;20040;-73
2021/03/23 09:16:17;;;;;;;32.92;20.90;;;8.30;81.60;;;;;;5054997;28;20037;-73
2021/03/23 09:19:07;;;;;;;34.72;19.92;;;8.30;81.20;;;;;;5055384;28;20037;-73
2021/03/23 09:21:52;;;;;;;34.40;19.75;;;8.30;81.20;;;;;;5055445;28;20166;-72
2021/03/23 09:24:35;;;;;;;37.92;22.40;;;8.40;81.10;;;;;;5055482;28;20071;-73
2021/03/23 09:27:04;;;;;;;32.03;21.17;;;8.30;81.00;;;;;;5055574;28;20377;-73
2021/03/23 09:29:48;;;;;;;36.25;20.20;;;8.40;80.80;;;;;;5055148;28;20072;-73
2021/03/23 09:32:19;;;;;;;31.33;19.45;;;8.40;79.70;;;;;;5037631;28;20041;-72
2021/03/23 09:35:05;;;;;;;31.92;20.27;;;8.50;79.90;;;;;;5054906;28;20091;-73
2021/03/23 09:37:39;;;;;;;30.95;20.75;;;8.60;80.00;;;;;;5055226;28;20086;-73
2021/03/23 09:40:17;;;;;;;29.55;20.23;;;8.70;79.70;;;;;;5055045;28;20040;-73
2021/03/23 09:42:47;;;;;;;35.00;21.25;;;8.60;79.00;;;;;;5054835;28;20075;-74
2021/03/23 09:45:13;;;;;;;31.10;19.67;;;8.70;79.40;;;;;;5055021;28;20120;-73
2021/03/23 09:48:01;;;;;;;32.78;20.60;;;8.80;79.60;;;;;;5055228;28;20072;-73
2021/03/23 09:50:36;;;;;;;32.45;19.60;;;8.80;79.00;;;;;;5055304;28;20477;-73
2021/03/23 09:53:12;;;;;;;33.75;20.75;;;8.90;79.80;;;;;;5055156;28;20738;-73
2021/03/23 09:55:39;;;;;;;32.60;20.83;;;8.90;79.00;;;;;;5054345;28;20044;-73
2021/03/23 09:58:12;;;;;;;30.27;19.80;;;8.90;79.00;;;;;;5054312;28;20049;-73
2021/03/23 10:00:37;;;;;;;29.73;20.75;;;8.90;78.70;;;;;;5055027;28;20051;-73
2021/03/23 10:03:38;;;;;;;33.08;21.60;;;8.90;77.90;;;;;;5055464;28;20044;-73
2021/03/23 10:06:14;;;;;;;33.47;21.63;;;8.90;78.50;;;;;;5056764;28;20120;-72
2021/03/23 10:09:02;;;;;;;33.22;19.10;;;9.00;79.50;;;;;;5056572;28;20485;-72
2021/03/23 10:11:36;;;;;;;31.85;21.02;;;9.00;78.30;;;;;;5056660;28;20451;-72
2021/03/23 10:14:09;;;;;;;29.92;19.92;;;9.00;78.90;;;;;;5056052;28;20496;-73
2021/03/23 10:16:36;;;;;;;30.80;20.00;;;9.10;78.30;;;;;;5054330;28;20037;-73
2021/03/23 10:19:20;;;;;;;30.85;20.27;;;9.10;77.80;;;;;;5054927;28;20477;-73
2021/03/23 10:21:49;;;;;;;35.55;20.33;;;9.20;77.90;;;;;;5036884;28;20064;-73
2021/03/23 10:24:19;;;;;;;30.63;19.83;;;9.30;78.60;;;;;;5054367;28;20033;-73
2021/03/23 10:26:47;;;;;;;30.83;20.90;;;9.40;77.60;;;;;;5053671;28;20465;-73
2021/03/23 10:29:17;;;;;;;30.13;20.85;;;9.50;77.00;;;;;;5053968;28;20041;-73
2021/03/23 10:31:51;;;;;;;26.98;19.23;;;9.60;77.10;;;;;;5054153;28;20045;-74
2021/03/23 10:34:19;;;;;;;31.20;19.83;;;9.70;76.60;;;;;;5053814;28;20041;-73
2021/03/23 10:37:08;;;;;;;31.98;20.00;;;9.70;76.10;;;;;;5053431;28;20041;-73
2021/03/23 10:39:43;;;;;;;30.55;21.10;;;9.60;76.70;;;;;;5053949;28;20037;-73
2021/03/23 10:42:25;;;;;;;33.35;20.85;;;9.50;75.90;;;;;;5054020;28;20037;-73
2021/03/23 10:45:12;;;;;;;32.40;19.77;;;9.60;76.60;;;;;;5053394;28;20496;-73
2021/03/23 10:47:40;;;;;;;32.47;21.45;;;9.80;77.20;;;;;;5053747;28;20083;-73
2021/03/23 10:50:19;;;;;;;34.25;21.52;;;9.90;76.20;;;;;;5053746;28;20511;-73
2021/03/23 10:52:45;;;;;;;33.47;21.20;;;9.90;75.90;;;;;;5053607;28;20037;-73
2021/03/23 10:55:13;;;;;;;28.98;20.77;;;10.10;76.00;;;;;;5053230;28;20029;-73
2021/03/23 10:57:39;;;;;;;31.60;20.50;;;10.10;75.20;;;;;;5053391;28;20044;-73
2021/03/23 11:00:28;;;;;;;32.55;21.52;;;10.10;74.60;;;;;;5035623;28;20037;-73
2021/03/23 11:03:13;;;;;;;33.00;22.23;;;10.10;73.70;;;;;;5053621;28;20064;-73
2021/03/23 11:05:45;;;;;;;34.03;22.58;;;10.30;75.00;;;;;;5053112;28;20041;-72
2021/03/23 11:08:13;;;;;;;32.47;22.70;;;10.10;73.90;;;;;;5035401;28;20037;-72
2021/03/23 11:10:39;;;;;;;31.52;21.80;;;10.10;74.90;;;;;;5053405;28;20120;-73
2021/03/23 11:13:05;;;;;;;33.60;22.40;;;10.00;74.80;;;;;;5053741;28;20041;-73
2021/03/23 11:16:07;;;;;;;38.38;23.60;;;10.00;74.90;;;;;;5053036;28;20041;-72
2021/03/23 11:18:30;;;;;;;33.55;23.20;;;10.00;75.00;;;;;;5050430;28;20052;-77
2021/03/23 11:21:00;;;;;;;36.92;22.77;;;10.00;75.10;;;;;;5035972;28;20037;-73
2021/03/23 11:23:42;;;;;;;32.97;23.35;;;10.10;74.60;;;;;;5053536;28;20064;-73
2021/03/23 11:26:12;;;;;;;36.63;22.90;;;10.10;74.90;;;;;;5053095;28;20047;-73
2021/03/23 11:28:38;;;;;;;33.53;23.17;;;10.00;74.90;;;;;;5053240;28;20064;-73
2021/03/23 11:31:05;;;;;;;33.83;22.25;;;10.00;75.30;;;;;;5053593;28;20044;-73
2021/03/23 11:33:32;;;;;;;35.35;23.42;;;10.20;75.70;;;;;;5053080;28;20040;-73
2021/03/23 11:35:58;;;;;;;31.08;22.27;;;10.30;75.00;;;;;;5052587;28;20073;-73
2021/03/23 11:38:24;;;;;;;31.95;20.42;;;10.40;74.60;;;;;;5053490;28;20067;-73
2021/03/23 11:40:55;;;;;;;34.42;22.02;;;10.50;75.10;;;;;;5053292;28;20049;-73
2021/03/23 11:43:42;;;;;;;38.63;23.15;;;10.60;74.10;;;;;;5053284;28;20049;-73
2021/03/23 11:46:18;;;;;;;36.85;23.25;;;10.70;74.80;;;;;;5052665;28;20033;-73
2021/03/23 11:48:46;;;;;;;31.33;22.67;;;10.80;74.30;;;;;;5053343;28;20037;-72
2021/03/23 11:51:12;;;;;;;32.42;21.35;;;10.70;74.40;;;;;;5053123;28;20041;-73
2021/03/23 11:53:38;;;;;;;36.42;23.50;;;10.70;72.90;;;;;;5052831;28;20048;-72
2021/03/23 11:56:04;;;;;;;35.30;22.77;;;10.80;73.00;;;;;;5052406;28;20120;-73
2021/03/23 11:58:31;;;;;;;34.88;22.83;;;10.70;73.00;;;;;;5052944;28;20037;-72
2021/03/23 12:00:57;;;;;;;32.08;22.92;;;10.70;73.80;;;;;;5052716;28;20041;-73
2021/03/23 12:03:23;;;;;;;34.58;22.23;;;10.90;75.00;;;;;;5053079;28;20388;-73
2021/03/23 12:05:49;;;;;;;36.47;23.70;;;10.80;72.80;;;;;;5052281;28;20091;-73
2021/03/23 12:08:23;;;;;;;33.83;21.58;;;10.90;73.70;;;;;;5052744;28;20048;-73
2021/03/23 12:11:00;;;;;;;36.25;24.48;;;11.10;73.80;;;;;;5052722;28;20517;-72
2021/03/23 12:13:44;;;;;;;34.72;22.95;;;11.20;74.50;;;;;;5052925;28;20082;-73
2021/03/23 12:16:12;;;;;;;;;;;11.30;72.80;;;;;;5052725;28;20041;-71
2021/03/23 12:18:39;;;;;;;36.53;23.60;;;11.10;71.90;;;;;;5052507;28;19917;-72
2021/03/23 12:21:06;;;;;;;39.42;24.25;;;11.10;71.90;;;;;;5055826;28;20124;-72
2021/03/23 12:23:32;;;;;;;36.90;23.90;;;11.00;72.20;;;;;;5056312;28;20056;-72
2021/03/23 12:25:59;;;;;;;36.15;24.02;;;10.90;73.10;;;;;;5038301;28;20037;-72
2021/03/23 12:28:26;;;;;;;39.08;26.52;;;10.90;73.60;;;;;;5056604;28;20075;-72
2021/03/23 12:30:52;;;;;;;38.45;24.13;;;11.00;72.40;;;;;;5056285;28;20400;-72
2021/03/23 12:33:18;;;;;;;37.55;25.48;;;11.00;72.70;;;;;;5056394;28;20065;-72
2021/03/23 12:35:43;;;;;;;37.92;26.17;;;10.80;72.40;;;;;;5056020;28;20116;-72
2021/03/23 12:38:14;;;;;;;38.67;24.83;;;10.80;73.40;;;;;;5056656;28;20120;-72
2021/03/23 12:40:40;;;;;;;41.97;28.05;;;10.70;74.80;;;;;;5056289;28;20045;-72
2021/03/23 12:43:11;;;;;;;41.25;27.77;;;10.60;74.80;;;;;;5056423;28;20113;-72
2021/03/23 12:45:40;;;;;;;41.70;27.42;;;10.60;74.90;;;;;;5055849;28;20043;-72
2021/03/23 12:48:08;;;;;;;44.03;28.45;;;10.60;74.50;;;;;;5055882;28;20377;-72
2021/03/23 12:50:34;;;;;;;39.75;26.90;;;10.60;73.20;;;;;;5056309;28;20041;-72
2021/03/23 12:53:03;;;;;;;44.58;26.55;;;10.60;73.30;;;;;;5055966;28;20052;-72
2021/03/23 12:55:30;;;;;;;38.95;25.85;;;10.70;73.70;;;;;;5055429;28;20036;-72
2021/03/23 12:58:00;;;;;;;39.30;27.02;;;10.80;73.00;;;;;;5055741;28;20037;-72
2021/03/23 13:00:38;;;;;;;40.50;27.92;;;10.70;72.30;;;;;;5055548;28;22076;-72
2021/03/23 13:03:06;;;;;;;42.03;28.42;;;10.70;71.60;;;;;;5055508;28;20045;-72
2021/03/23 13:05:32;;;;;;;40.20;28.08;;;10.60;72.30;;;;;;5054924;28;20036;-72